createdAt,value
2023-03-15T06:17:03.653Z,2.57
2023-03-15T06:19:30.598Z,3.50
2023-03-15T06:21:57.558Z,2.70
2023-03-15T06:24:25.311Z,3.83
2023-03-15T06:26:54.882Z,3.47
2023-03-15T06:29:22.168Z,3.27
2023-03-15T06:31:53.032Z,2.70
2023-03-15T06:34:21.250Z,2.87
2023-03-15T06:36:49.713Z,3.97
2023-03-15T06:39:16.583Z,3.20
2023-03-15T06:41:43.392Z,4.10
2023-03-15T06:44:11.016Z,3.57
2023-03-15T06:46:37.958Z,3.33
2023-03-15T06:49:04.818Z,3.80
2023-03-15T06:51:31.697Z,4.67
2023-03-15T06:53:58.550Z,4.57
2023-03-15T06:56:25.513Z,4.40
2023-03-15T06:58:52.319Z,3.87
2023-03-15T07:01:19.166Z,4.23
2023-03-15T07:03:46.014Z,3.27
2023-03-15T07:06:12.822Z,3.63
2023-03-15T07:08:39.709Z,3.93
2023-03-15T07:11:06.630Z,3.57
2023-03-15T07:13:33.623Z,3.30
2023-03-15T07:16:00.963Z,3.33
2023-03-15T07:18:27.974Z,3.00
2023-03-15T07:20:59.189Z,2.70
2023-03-15T07:23:26.252Z,4.20
2023-03-15T07:25:55.616Z,3.07
2023-03-15T07:28:24.048Z,3.10
2023-03-15T07:31:04.427Z,3.03
2023-03-15T07:33:33.223Z,2.63
2023-03-15T07:36:00.336Z,2.97
2023-03-15T07:38:30.876Z,3.07
2023-03-15T07:40:57.993Z,3.00
2023-03-15T07:43:24.955Z,2.73
2023-03-15T07:45:51.792Z,3.30
2023-03-15T07:48:18.866Z,2.80
2023-03-15T07:50:46.007Z,2.93
2023-03-15T07:53:12.841Z,4.17
2023-03-15T07:55:39.664Z,4.60
2023-03-15T07:58:06.429Z,3.93
2023-03-15T08:00:33.564Z,4.27
2023-03-15T08:03:00.573Z,4.43
2023-03-15T08:05:29.129Z,4.07
2023-03-15T08:07:56.858Z,3.53
2023-03-15T08:10:23.881Z,3.60
2023-03-15T08:12:50.954Z,3.17
2023-03-15T08:15:19.206Z,4.00
2023-03-15T08:17:48.089Z,3.03
2023-03-15T08:20:17.908Z,3.67
2023-03-15T08:22:48.473Z,3.37
2023-03-15T08:25:17.050Z,3.63
2023-03-15T08:27:44.323Z,3.57
2023-03-15T08:30:12.972Z,3.73
2023-03-15T08:32:41.379Z,3.70
2023-03-15T08:35:09.146Z,2.80
2023-03-15T08:37:36.270Z,2.80
2023-03-15T08:40:09.141Z,2.97
2023-03-15T08:42:39.332Z,4.37
2023-03-15T08:45:07.679Z,4.00
2023-03-15T08:47:38.033Z,4.57
2023-03-15T08:50:07.240Z,4.07
2023-03-15T08:52:34.164Z,4.10
2023-03-15T08:55:01.322Z,4.67
2023-03-15T08:57:29.125Z,4.30
2023-03-15T08:59:56.465Z,4.13
2023-03-15T09:02:23.672Z,4.17
2023-03-15T09:04:52.464Z,5.37
2023-03-15T09:07:21.933Z,4.03
2023-03-15T09:09:49.276Z,4.27
2023-03-15T09:12:17.160Z,3.70
2023-03-15T09:14:44.720Z,3.93
2023-03-15T09:17:11.893Z,3.53
2023-03-15T09:19:39.577Z,3.80
2023-03-15T09:22:16.837Z,2.50
2023-03-15T09:24:51.767Z,2.67
2023-03-15T09:27:19.123Z,1.93
2023-03-15T09:29:45.973Z,2.33
2023-03-15T09:32:13.592Z,2.37
2023-03-15T09:34:42.307Z,1.93
2023-03-15T09:37:09.999Z,1.73
2023-03-15T09:39:38.005Z,1.70
2023-03-15T09:42:13.990Z,2.37
2023-03-15T09:44:54.813Z,1.50
2023-03-15T09:47:46.926Z,1.97
2023-03-15T09:50:19.317Z,1.83
2023-03-15T09:53:21.367Z,2.30
2023-03-15T09:55:48.975Z,2.03
2023-03-15T09:58:32.819Z,1.63
2023-03-15T10:01:06.216Z,2.03
2023-03-15T10:03:39.889Z,1.10
2023-03-15T10:06:23.047Z,1.93
2023-03-15T10:08:52.404Z,1.70
2023-03-15T10:12:05.476Z,1.33
2023-03-15T10:14:41.510Z,1.07
2023-03-15T10:17:43.063Z,1.10
2023-03-15T10:20:49.779Z,1.73
2023-03-15T10:23:47.717Z,1.67
2023-03-15T10:26:38.743Z,1.77
2023-03-15T10:29:14.697Z,1.23
2023-03-15T10:32:04.256Z,1.87
2023-03-15T10:34:35.950Z,1.10
2023-03-15T10:38:01.303Z,1.37
2023-03-15T10:41:02.960Z,1.83
2023-03-15T10:43:52.587Z,1.63
2023-03-15T10:46:26.967Z,2.83
2023-03-15T10:49:25.274Z,1.97
2023-03-15T10:51:53.238Z,1.63
2023-03-15T10:54:23.495Z,1.90
2023-03-15T10:56:58.492Z,5.10
2023-03-15T10:59:28.294Z,3.23
2023-03-15T11:02:11.862Z,2.30
2023-03-15T11:04:49.490Z,2.00
2023-03-15T11:07:16.745Z,2.60
2023-03-15T11:09:46.097Z,1.63
2023-03-15T11:12:21.980Z,1.40
2023-03-15T11:14:52.029Z,1.40
2023-03-15T11:17:28.419Z,1.50
2023-03-15T11:20:13.118Z,1.80
2023-03-15T11:22:40.495Z,2.27
2023-03-15T11:25:17.598Z,1.47
2023-03-15T11:27:46.928Z,1.43
2023-03-15T11:30:16.314Z,1.57
2023-03-15T11:32:44.147Z,1.93
2023-03-15T11:35:32.645Z,4.93
2023-03-15T11:38:15.758Z,3.10
2023-03-15T11:40:45.313Z,2.77
2023-03-15T11:43:25.365Z,2.77
2023-03-15T11:45:56.845Z,1.60
2023-03-15T11:48:25.905Z,2.10
2023-03-15T11:50:54.437Z,2.00
2023-03-15T11:53:21.893Z,2.30
2023-03-15T11:55:50.812Z,1.90
2023-03-15T11:58:42.705Z,2.47
2023-03-15T12:01:11.543Z,2.50
2023-03-15T12:03:43.457Z,2.07
2023-03-15T12:06:34.305Z,2.07
2023-03-15T12:09:02.001Z,1.67
2023-03-15T12:11:28.759Z,1.53
2023-03-15T12:13:58.361Z,2.10
2023-03-15T12:16:31.310Z,1.70
2023-03-15T12:18:59.327Z,1.93
2023-03-15T12:21:32.786Z,2.27
2023-03-15T12:24:05.702Z,1.70
2023-03-15T12:26:43.295Z,1.80
2023-03-15T12:29:19.708Z,1.70
2023-03-15T12:31:52.970Z,1.70
2023-03-15T12:34:51.513Z,1.73
2023-03-15T12:37:32.472Z,1.60
2023-03-15T12:40:20.422Z,1.57
2023-03-15T12:42:47.296Z,1.27
2023-03-15T12:45:17.124Z,1.63
2023-03-15T12:47:49.924Z,1.30
2023-03-15T12:50:35.445Z,1.33
2023-03-15T12:53:13.170Z,1.43
2023-03-15T12:55:40.564Z,1.43
2023-03-15T12:58:10.895Z,1.40
2023-03-15T13:00:38.642Z,2.10
2023-03-15T13:03:08.371Z,1.00
2023-03-15T13:06:03.294Z,1.20
2023-03-15T13:08:36.390Z,1.00
2023-03-15T13:11:15.683Z,1.20
2023-03-15T13:14:00.123Z,1.40
2023-03-15T13:16:41.013Z,1.33
2023-03-15T13:19:17.751Z,1.33
2023-03-15T13:22:25.745Z,1.10
2023-03-15T13:24:58.020Z,1.00
2023-03-15T13:27:43.791Z,1.07
2023-03-15T13:30:37.500Z,1.00
2023-03-15T13:33:20.140Z,1.43
2023-03-15T13:35:57.617Z,1.20
2023-03-15T13:38:27.948Z,0.70
2023-03-15T13:40:56.130Z,0.80
2023-03-15T13:43:38.837Z,1.00
2023-03-15T13:46:06.083Z,0.70
2023-03-15T13:48:37.985Z,0.77
2023-03-15T13:51:25.965Z,1.30
2023-03-15T13:53:56.955Z,1.60
2023-03-15T13:56:43.545Z,1.40
2023-03-15T13:59:15.694Z,1.20
2023-03-15T14:01:43.287Z,1.40
2023-03-15T14:04:19.357Z,1.40
2023-03-15T14:06:46.989Z,1.60
2023-03-15T14:09:24.748Z,2.10
2023-03-15T14:12:23.284Z,2.20
2023-03-15T14:14:53.907Z,1.50
2023-03-15T14:17:29.888Z,1.90
2023-03-15T14:20:09.327Z,1.27
2023-03-15T14:22:42.460Z,2.03
2023-03-15T14:25:22.581Z,1.70
2023-03-15T14:27:49.490Z,1.50
2023-03-15T14:30:25.059Z,1.23
2023-03-15T14:32:54.725Z,1.27
2023-03-15T14:35:26.654Z,1.80
2023-03-15T14:38:23.804Z,1.43
2023-03-15T14:40:52.128Z,1.60
2023-03-15T14:43:19.447Z,1.30
2023-03-15T14:45:47.820Z,1.70
2023-03-15T14:48:27.374Z,3.00
2023-03-15T14:50:54.929Z,2.33
2023-03-15T14:53:24.555Z,2.30
2023-03-15T14:55:51.434Z,1.90
2023-03-15T14:58:22.930Z,2.40
2023-03-15T15:00:55.660Z,2.20
2023-03-15T15:03:41.137Z,2.13
2023-03-15T15:06:11.873Z,2.23
2023-03-15T15:08:40.257Z,1.77
2023-03-15T15:11:11.043Z,2.10
2023-03-15T15:13:39.127Z,2.10
2023-03-15T15:16:07.483Z,2.33
2023-03-15T15:18:36.989Z,2.43
2023-03-15T15:21:27.627Z,3.60
2023-03-15T15:23:58.880Z,2.27
2023-03-15T15:26:29.147Z,2.50
2023-03-15T15:28:56.918Z,1.67
2023-03-15T15:31:25.487Z,2.10
2023-03-15T15:33:54.079Z,1.90
2023-03-15T15:36:52.275Z,2.27
2023-03-15T15:39:27.751Z,2.60
2023-03-15T15:41:54.700Z,2.00
2023-03-15T15:44:25.097Z,2.07
2023-03-15T15:46:52.441Z,1.93
2023-03-15T15:49:20.063Z,1.57
2023-03-15T15:51:49.970Z,1.50
2023-03-15T15:54:23.321Z,0.90
2023-03-15T15:56:52.622Z,1.53
2023-03-15T15:59:19.845Z,1.70
2023-03-15T16:02:00.148Z,1.70
2023-03-15T16:04:28.531Z,1.53
2023-03-15T16:07:01.872Z,1.53
2023-03-15T16:09:30.594Z,1.30
2023-03-15T16:11:57.482Z,2.00
2023-03-15T16:14:24.295Z,1.70
2023-03-15T16:16:51.212Z,1.63
2023-03-15T16:19:18.095Z,1.70
2023-03-15T16:21:48.029Z,1.20
2023-03-15T16:24:18.697Z,2.00
2023-03-15T16:26:46.169Z,1.50
2023-03-15T16:29:19.151Z,3.13
2023-03-15T16:31:46.877Z,1.87
2023-03-15T16:34:15.855Z,2.40
2023-03-15T16:36:44.120Z,2.10
2023-03-15T16:39:15.033Z,1.90
2023-03-15T16:45:23.108Z,2.07
2023-03-15T16:48:12.276Z,1.50
2023-03-15T16:50:39.922Z,1.17
2023-03-15T16:53:08.908Z,1.80
2023-03-15T16:55:36.291Z,1.67
2023-03-15T16:58:07.614Z,1.87
2023-03-15T17:00:35.304Z,1.73
2023-03-15T17:03:16.987Z,1.87
2023-03-15T17:05:50.836Z,1.63
2023-03-15T17:08:20.417Z,1.33
2023-03-15T17:10:49.934Z,1.40
2023-03-15T17:13:19.662Z,1.80
2023-03-15T17:15:46.486Z,1.90
2023-03-15T17:18:18.448Z,1.33
2023-03-15T17:20:47.545Z,1.40
2023-03-15T17:23:14.565Z,1.40
2023-03-15T17:25:41.595Z,1.80
2023-03-15T17:28:08.632Z,1.47
2023-03-15T17:30:37.184Z,1.30
2023-03-15T17:33:05.175Z,1.30
2023-03-15T17:35:34.613Z,2.33
2023-03-15T17:38:03.273Z,1.50
2023-03-15T17:40:35.207Z,1.43
2023-03-15T17:43:03.540Z,2.00
2023-03-15T17:45:34.684Z,1.20
2023-03-15T17:48:02.065Z,1.60
2023-03-15T17:50:30.993Z,1.53
2023-03-15T17:53:01.890Z,1.23
2023-03-15T17:55:29.884Z,2.23
2023-03-15T17:57:56.788Z,2.60
2023-03-15T18:00:25.257Z,2.33
2023-03-15T18:02:56.590Z,1.53
2023-03-15T18:05:30.353Z,1.63
2023-03-15T18:08:00.062Z,1.43
2023-03-15T18:10:34.078Z,1.60
2023-03-15T18:13:01.132Z,1.47
2023-03-15T18:15:28.136Z,1.47
2023-03-15T18:17:55.004Z,1.13
2023-03-15T18:20:24.385Z,1.07
2023-03-15T18:22:51.707Z,0.97
2023-03-15T18:25:27.050Z,0.80
2023-03-15T18:27:54.120Z,1.40
2023-03-15T18:30:24.135Z,0.93
2023-03-15T18:32:52.158Z,1.00
2023-03-15T18:35:24.758Z,1.37
2023-03-15T18:37:51.775Z,0.60
2023-03-15T18:40:20.547Z,0.73
2023-03-15T18:42:47.481Z,0.73
2023-03-15T18:45:25.440Z,0.80
2023-03-15T18:47:52.421Z,0.50
2023-03-15T18:50:20.369Z,0.90
2023-03-15T18:52:47.553Z,0.70
2023-03-15T18:55:16.575Z,0.83
2023-03-15T18:57:43.550Z,1.00
2023-03-15T19:00:17.161Z,0.63
2023-03-15T19:02:46.179Z,0.60
2023-03-15T19:05:14.259Z,0.50
2023-03-15T19:07:41.677Z,0.73
2023-03-15T19:10:24.920Z,0.60
2023-03-15T19:12:53.297Z,0.60
2023-03-15T19:15:22.750Z,0.60
2023-03-15T19:17:51.709Z,0.73
2023-03-15T19:20:24.852Z,0.70
2023-03-15T19:22:52.747Z,0.70
2023-03-15T19:25:20.203Z,0.80
2023-03-15T19:27:47.027Z,1.20
2023-03-15T19:30:27.704Z,0.70
2023-03-15T19:32:54.960Z,0.70
2023-03-15T19:35:22.105Z,0.57
2023-03-15T19:37:49.088Z,0.80
2023-03-15T19:40:19.952Z,0.70
2023-03-15T19:42:47.076Z,0.60
2023-03-15T19:45:13.986Z,1.00
2023-03-15T19:47:41.155Z,1.00
2023-03-15T19:50:11.622Z,0.90
2023-03-15T19:52:45.850Z,0.90
2023-03-15T19:55:17.604Z,0.60
2023-03-15T19:57:45.048Z,0.80
